Pontiac, MI (48340)

3:50 AM EST on December 10, 2016 (GMT -0500)
Lake Angelus Shores | | Change Station

Elev 0 ft 42.69 °N, 83.33 °W | Updated 8 minutes ago

Overcast
Overcast
25.9 °F
Feels Like 19 °F
N
6.2
Wind Variable Wind from West
Gusts 9.9 mph

Today
High -- | Low -- °F
--% Chance of Precip.
Yesterday
High -- | Low -- °F
Precip. -- in
Pressure 30.42 in
Visibility 10.0 miles
Clouds Scattered Clouds 1700 ft
Mostly Cloudy 2200 ft
Overcast 5500 ft
Windchill 19 °F
Dew Point 19 °F
Humidity 76%
Rainfall Not available.
Snow Depth Not available.
7:52 AM 4:59 PM
Waxing Gibbous, 82% visible
METAR KPTK 100753Z AUTO 27008KT 10SM SCT017 BKN022 OVC055 M05/M08 A3037 RMK AO2 SLP299 T10501083
Pressure 30.42 in
Visibility 10.0 miles
Clouds Scattered Clouds 1700 ft
Mostly Cloudy 2200 ft
Overcast 5500 ft
Windchill 19 °F
Dew Point 19 °F
Humidity 76%
Rainfall Not available.
Snow Depth Not available.
7:52 AM 4:59 PM
Waxing Gibbous, 82% visible
METAR KPTK 100753Z AUTO 27008KT 10SM SCT017 BKN022 OVC055 M05/M08 A3037 RMK AO2 SLP299 T10501083

10-Day Weather Forecast

Almanac

Astronomy

Dec. 10, 2016 Rise Set
Actual Time
Civil Twilight
Nautical Twilight
Astronomical Twilight
Moon
Length of Visible Light
Length of Day
Tomorrow will be .
, % of the Moon is Illuminated

Today's Extremes

State Highs State Lows

Community

WunderPhotos

Upload Photos

1,956,538 photos uploaded!

WunderBlog® & News

Nearby

Air Quality

  Air Quality AQ Index Pollutant
Not available.

Snow Depth

Station Depth Elevation

Earthquake Activity

City Distance Mag. Time & Date
Minimum magnitude displayed is 2.5.

Coastal Water Temperatures

Place Temperature

Stations

Nearby Weather Stations

Station Location Temp. Windchill Dew Point Humidity Wind Precip. Elev Updated Type
                   

Watches & Warnings

There are currently no watches in effect.